This is the latest recevied weather packets stored in our database for station/object W2SRH. If no packets are shown the sender has not sent any weather packets the latest 10 day(s).
| Time | Temp. | Humidity | Pressure | Rain* | Wind** | Luminosity | Snow |
|---|---|---|---|---|---|---|---|
| 1777688943 | 12.78° C | 52% | 1003.6 hPa | 0 mm | 0 m/s | - | - |
| 1777688344 | 12.78° C | 51% | 1003.6 hPa | 0 mm | 0 m/s | - | - |
| 1777687743 | 12.78° C | 50% | 1003.6 hPa | 0 mm | 0 m/s | - | - |
| 1777687144 | 13.33° C | 50% | 1003.7 hPa | 0 mm | 0 m/s | - | - |
| 1777686545 | 13.33° C | 48% | 1003.5 hPa | 0 mm | 0 m/s | - | - |
| 1777685944 | 13.33° C | 47% | 1003.3 hPa | 0 mm | 0 m/s | - | - |
| 1777685345 | 13.33° C | 46% | 1003.2 hPa | 0 mm | 0 m/s | - | - |
| 1777684744 | 13.33° C | 46% | 1003.1 hPa | 0 mm | 0 m/s | - | - |
| 1777684144 | 13.33° C | 46% | 1003 hPa | 0 mm | 0 m/s | - | - |
| 1777683968 | 13.89° C | 45% | 1002.7 hPa | 0 mm | 0 m/s | - | - |
| 1777683544 | 12.78° C | 48% | 1003 hPa | 0 mm | 0 m/s | - | - |
| 1777682944 | 13.33° C | 47% | 1002.9 hPa | 0 mm | 0 m/s | - | - |
| 1777682344 | 13.89° C | 45% | 1002.7 hPa | 0 mm | 0 m/s | - | - |
| 1777681744 | 13.89° C | 44% | 1002.6 hPa | 0 mm | 0 m/s | - | - |
| 1777681144 | 14.44° C | 42% | 1002.5 hPa | 0 mm | 0 m/s | - | - |
| 1777680544 | 15° C | 40% | 1002.6 hPa | 0 mm | 0 m/s | - | - |
| 1777679943 | 15.56° C | 39% | 1002.3 hPa | 0 mm | 0 m/s | - | - |
| 1777679344 | 16.11° C | 37% | 1002.3 hPa | 0 mm | 0 m/s | - | - |
| 1777678743 | 16.11° C | 36% | 1002.2 hPa | 0 mm | 0.45 m/s, 200° | - | - |
| 1777678144 | 16.67° C | 35% | 1002.3 hPa | 0 mm | 0.89 m/s, 247° | - | - |
| 1777677543 | 16.67° C | 37% | 1002 hPa | 0 mm | 0 m/s | - | - |
| 1777676943 | 17.22° C | 36% | 1002 hPa | 0 mm | 0.45 m/s, 201° | - | - |
| 1777676344 | 17.22° C | 35% | 1002 hPa | 0 mm | 0.45 m/s, 210° | - | - |
| 1777675744 | 17.78° C | 34% | 1002 hPa | 0 mm | 0.45 m/s, 253° | - | - |
| 1777675144 | 17.78° C | 34% | 1001.9 hPa | 0 mm | 0.45 m/s, 263° | - | - |
* Rain latest hour (hover to see other rain measurements)
** Current wind speed in m/s (hover to see current wind gust speed)